createdAt,value
2018-03-29T00:01:42.689Z,87.90
2018-03-29T00:06:42.949Z,88.30
2018-03-29T00:09:12.488Z,88.30
2018-03-29T00:11:42.150Z,88.10
2018-03-29T00:14:12.904Z,88.10
2018-03-29T00:16:43.041Z,87.90
2018-03-29T00:19:12.606Z,87.10
2018-03-29T00:21:45.425Z,87.60
2018-03-29T00:26:49.201Z,86.70
2018-03-29T00:31:52.743Z,86.30
2018-03-29T00:36:54.142Z,86.20
2018-03-29T00:39:23.840Z,87.20
2018-03-29T00:42:06.679Z,87.10
2018-03-29T00:47:07.335Z,87.60
2018-03-29T00:49:37.597Z,86.80
2018-03-29T00:52:07.604Z,86.80
2018-03-29T00:54:38.249Z,87.40
2018-03-29T00:57:10.247Z,86.60
2018-03-29T00:59:41.140Z,85.80
2018-03-29T01:02:14.252Z,86.40
2018-03-29T01:04:44.574Z,85.80
2018-03-29T01:07:14.881Z,86.00
2018-03-29T01:09:44.564Z,85.20
2018-03-29T01:14:47.282Z,84.20
2018-03-29T01:17:20.780Z,84.40
2018-03-29T01:19:51.788Z,83.00
2018-03-29T01:22:21.956Z,83.30
2018-03-29T01:24:51.931Z,83.30
2018-03-29T01:27:24.940Z,82.90
2018-03-29T01:32:35.902Z,82.50
2018-03-29T01:37:37.214Z,82.70
2018-03-29T01:40:07.339Z,82.50
2018-03-29T01:42:38.117Z,82.50
2018-03-29T01:45:08.120Z,82.50
2018-03-29T01:47:38.057Z,82.00
2018-03-29T01:50:09.296Z,82.30
2018-03-29T01:52:39.552Z,80.60
2018-03-29T01:55:10.087Z,80.00
2018-03-29T01:57:42.103Z,80.60
2018-03-29T02:00:12.463Z,81.60
2018-03-29T02:02:43.148Z,82.20
2018-03-29T02:07:45.876Z,83.20
2018-03-29T02:17:50.026Z,83.60
2018-03-29T02:20:20.573Z,83.10
2018-03-29T02:22:51.985Z,83.70
2018-03-29T02:25:22.394Z,83.30
2018-03-29T02:30:28.745Z,83.50
2018-03-29T02:32:58.838Z,83.00
2018-03-29T02:35:29.555Z,82.90
2018-03-29T02:38:00.979Z,83.90
2018-03-29T02:40:30.899Z,83.00
2018-03-29T02:43:03.793Z,83.40
2018-03-29T02:45:34.513Z,83.10
2018-03-29T02:48:06.715Z,81.60
2018-03-29T02:53:21.063Z,82.10
2018-03-29T02:55:51.141Z,82.40
2018-03-29T02:58:21.606Z,82.10
2018-03-29T03:00:51.626Z,81.60
2018-03-29T03:03:21.892Z,81.60
2018-03-29T03:05:52.018Z,81.70
2018-03-29T03:08:22.542Z,82.10
2018-03-29T03:10:53.760Z,81.90
2018-03-29T03:15:55.624Z,81.90
2018-03-29T03:18:26.291Z,81.50
2018-03-29T03:20:57.529Z,82.30
2018-03-29T03:23:28.810Z,81.50
2018-03-29T03:25:58.775Z,81.30
2018-03-29T03:28:29.530Z,81.70
2018-03-29T03:31:00.478Z,81.70
2018-03-29T03:33:31.786Z,81.70
2018-03-29T03:36:02.664Z,81.30
2018-03-29T03:41:04.360Z,81.40
2018-03-29T03:43:35.312Z,81.20
2018-03-29T03:46:05.475Z,81.30
2018-03-29T03:48:36.410Z,82.30
2018-03-29T03:51:07.302Z,81.60
2018-03-29T03:53:37.735Z,81.50
2018-03-29T03:56:08.343Z,81.80
2018-03-29T03:58:39.690Z,82.00
2018-03-29T04:01:09.894Z,82.50
2018-03-29T04:03:42.417Z,82.30
2018-03-29T04:08:44.278Z,82.80
2018-03-29T04:11:15.734Z,82.40
2018-03-29T04:13:47.440Z,82.40
2018-03-29T04:16:18.648Z,82.70
2018-03-29T04:18:51.944Z,81.60
2018-03-29T04:23:54.327Z,81.80
2018-03-29T04:26:25.247Z,81.50
2018-03-29T04:34:02.237Z,82.20
2018-03-29T04:36:33.108Z,82.50
2018-03-29T04:39:07.262Z,82.20
2018-03-29T04:41:38.850Z,82.10
2018-03-29T04:44:09.751Z,82.50
2018-03-29T04:46:40.908Z,82.50
2018-03-29T04:49:13.453Z,82.90
2018-03-29T04:51:43.928Z,82.80
2018-03-29T04:54:15.145Z,83.00
2018-03-29T04:56:45.971Z,84.30
2018-03-29T04:59:16.927Z,84.00
2018-03-29T05:01:47.222Z,82.90
2018-03-29T05:04:20.871Z,82.70
2018-03-29T05:06:52.432Z,82.20
2018-03-29T05:09:24.059Z,82.60
2018-03-29T05:11:54.961Z,83.50
2018-03-29T05:14:25.605Z,83.00
2018-03-29T05:16:55.527Z,82.90
2018-03-29T05:19:26.583Z,83.30
2018-03-29T05:21:57.776Z,82.90
2018-03-29T05:24:28.796Z,83.10
2018-03-29T05:26:58.791Z,83.10
2018-03-29T05:29:31.201Z,83.10
2018-03-29T05:32:01.102Z,82.60
2018-03-29T05:34:34.000Z,82.40
2018-03-29T05:37:04.190Z,82.80
2018-03-29T05:39:37.349Z,83.10
2018-03-29T05:42:07.319Z,82.20
2018-03-29T05:44:38.899Z,81.70
2018-03-29T05:47:08.477Z,82.30
2018-03-29T05:49:42.149Z,81.80
2018-03-29T05:52:11.894Z,81.60
2018-03-29T05:54:45.427Z,81.80
2018-03-29T05:57:15.412Z,81.10
2018-03-29T05:59:47.093Z,80.80
2018-03-29T06:02:16.862Z,80.50
2018-03-29T06:04:50.119Z,80.80
2018-03-29T06:07:20.544Z,81.00
2018-03-29T06:09:52.892Z,81.40
2018-03-29T06:12:23.874Z,80.10
2018-03-29T06:15:01.429Z,80.30
2018-03-29T06:17:31.739Z,80.30
2018-03-29T06:20:01.616Z,80.80
2018-03-29T06:22:31.582Z,79.80
2018-03-29T06:25:01.891Z,80.30
2018-03-29T06:27:33.065Z,79.80
2018-03-29T06:30:04.451Z,79.40
2018-03-29T06:32:35.198Z,77.90
2018-03-29T06:35:07.428Z,78.40
2018-03-29T06:37:38.428Z,78.20
2018-03-29T06:40:13.826Z,79.30
2018-03-29T06:42:43.320Z,78.50
2018-03-29T06:45:16.566Z,78.30
2018-03-29T06:50:16.910Z,78.80
2018-03-29T06:52:46.564Z,77.60
2018-03-29T06:55:20.208Z,77.90
2018-03-29T06:57:49.843Z,76.90
2018-03-29T07:00:21.788Z,76.60
2018-03-29T07:02:51.247Z,76.60
2018-03-29T07:05:33.923Z,76.80
2018-03-29T07:08:03.826Z,77.20
2018-03-29T07:10:35.672Z,77.50
2018-03-29T07:13:05.779Z,77.60
2018-03-29T07:15:35.589Z,77.90
2018-03-29T07:18:05.350Z,77.20
2018-03-29T07:20:35.529Z,77.90
2018-03-29T07:23:05.326Z,77.10
2018-03-29T07:25:34.821Z,77.10
2018-03-29T07:28:05.700Z,77.20
2018-03-29T07:30:36.348Z,76.20
2018-03-29T07:33:06.514Z,77.50
2018-03-29T07:35:39.406Z,76.60
2018-03-29T07:38:09.232Z,76.70
2018-03-29T07:40:42.592Z,76.90
2018-03-29T07:43:13.637Z,76.70
2018-03-29T07:45:44.539Z,77.10
2018-03-29T07:48:15.166Z,75.40
2018-03-29T07:50:47.223Z,75.00
2018-03-29T07:53:17.272Z,75.60
2018-03-29T07:55:50.624Z,75.40
2018-03-29T07:58:20.790Z,74.90
2018-03-29T08:00:54.244Z,74.90
2018-03-29T08:03:23.770Z,73.60
2018-03-29T08:05:58.157Z,73.00
2018-03-29T08:08:28.430Z,73.10
2018-03-29T08:11:00.056Z,74.50
2018-03-29T08:13:29.456Z,74.30
2018-03-29T08:16:11.534Z,74.20
2018-03-29T08:18:41.614Z,73.10
2018-03-29T08:21:11.094Z,73.10
2018-03-29T08:23:41.736Z,72.60
2018-03-29T08:28:42.224Z,72.30
2018-03-29T08:31:13.760Z,72.70
2018-03-29T08:33:43.573Z,73.00
2018-03-29T08:36:16.763Z,73.60
2018-03-29T08:38:46.503Z,72.50
2018-03-29T08:41:17.327Z,72.20
2018-03-29T08:43:48.436Z,72.60
2018-03-29T08:46:20.067Z,73.60
2018-03-29T08:48:50.441Z,73.90
2018-03-29T08:51:21.945Z,73.60
2018-03-29T08:53:52.473Z,72.50
2018-03-29T08:56:24.812Z,72.20
2018-03-29T08:58:54.342Z,72.10
2018-03-29T09:01:26.619Z,72.10
2018-03-29T09:03:56.999Z,72.80
2018-03-29T09:06:30.303Z,72.00
2018-03-29T09:09:00.024Z,70.80
2018-03-29T09:11:30.980Z,71.00
2018-03-29T09:14:00.310Z,71.30
2018-03-29T09:16:35.903Z,71.30
2018-03-29T09:19:05.401Z,70.80
2018-03-29T09:21:37.849Z,70.10
2018-03-29T09:26:39.542Z,70.60
2018-03-29T09:29:09.106Z,69.60
2018-03-29T09:31:52.264Z,68.80
2018-03-29T09:36:52.158Z,67.40
2018-03-29T09:39:22.281Z,68.30
2018-03-29T09:46:52.806Z,65.60
2018-03-29T09:49:22.298Z,68.50
2018-03-29T09:51:55.395Z,66.80
2018-03-29T09:54:24.904Z,65.00
2018-03-29T09:56:58.206Z,66.10
2018-03-29T10:02:14.729Z,66.30
2018-03-29T10:04:49.832Z,65.80
2018-03-29T10:07:23.359Z,66.80
2018-03-29T10:09:54.046Z,66.20
2018-03-29T10:12:23.635Z,67.20
2018-03-29T10:14:53.505Z,65.60
2018-03-29T10:17:23.540Z,64.10
2018-03-29T10:19:53.458Z,63.50
2018-03-29T10:22:23.708Z,63.30
2018-03-29T10:24:53.238Z,64.00
2018-03-29T10:29:53.254Z,63.90
2018-03-29T10:32:23.901Z,63.30
2018-03-29T10:34:53.465Z,63.50
2018-03-29T10:37:23.492Z,63.00
2018-03-29T10:39:53.548Z,61.50
2018-03-29T10:42:25.474Z,60.90
2018-03-29T10:44:56.108Z,60.50
2018-03-29T10:47:27.636Z,60.40
2018-03-29T10:49:58.678Z,58.90
2018-03-29T10:52:30.087Z,57.80
2018-03-29T10:55:01.182Z,56.80
2018-03-29T10:57:32.622Z,57.80
2018-03-29T11:00:04.238Z,57.70
2018-03-29T11:02:37.008Z,58.70
2018-03-29T11:05:06.614Z,58.70
2018-03-29T11:07:37.994Z,56.10
2018-03-29T11:10:08.919Z,53.60
2018-03-29T11:12:41.288Z,53.90
2018-03-29T11:15:10.685Z,54.00
2018-03-29T11:17:43.721Z,54.80
2018-03-29T11:20:13.897Z,54.80
2018-03-29T11:22:47.761Z,52.40
2018-03-29T11:27:52.445Z,49.70
2018-03-29T11:30:21.817Z,50.60
2018-03-29T11:35:25.991Z,50.10
2018-03-29T11:37:59.267Z,51.40
2018-03-29T11:40:28.737Z,52.50
2018-03-29T11:43:01.309Z,51.10
2018-03-29T11:45:30.718Z,51.90
2018-03-29T11:48:12.784Z,49.10
2018-03-29T11:50:43.371Z,47.10
2018-03-29T11:53:13.601Z,48.40
2018-03-29T11:55:43.740Z,48.60
2018-03-29T11:58:14.634Z,47.00
2018-03-29T12:00:43.987Z,45.70
2018-03-29T12:03:15.076Z,44.90
2018-03-29T12:05:44.797Z,45.60
2018-03-29T12:08:14.694Z,47.10
2018-03-29T12:10:44.083Z,46.20
2018-03-29T12:13:17.224Z,45.00
2018-03-29T12:15:47.593Z,42.80
2018-03-29T12:18:19.590Z,45.30
2018-03-29T12:20:49.875Z,45.40
2018-03-29T12:23:22.516Z,43.70
2018-03-29T12:25:52.037Z,45.40
2018-03-29T12:28:24.026Z,46.80
2018-03-29T12:30:54.206Z,48.00
2018-03-29T12:33:26.329Z,46.30
2018-03-29T12:35:55.964Z,43.80
2018-03-29T12:38:38.668Z,44.50
2018-03-29T12:41:08.498Z,42.80
2018-03-29T12:43:40.884Z,42.60
2018-03-29T12:46:10.801Z,42.40
2018-03-29T12:48:41.533Z,51.40
2018-03-29T12:51:11.387Z,48.00
2018-03-29T12:53:41.430Z,52.20
2018-03-29T12:58:46.548Z,52.20
2018-03-29T13:01:16.847Z,52.40
2018-03-29T13:03:46.860Z,51.50
2018-03-29T13:06:16.327Z,50.50
2018-03-29T13:08:46.935Z,53.20
2018-03-29T13:11:16.549Z,52.70
2018-03-29T13:13:46.959Z,49.40
2018-03-29T13:16:17.997Z,50.90
2018-03-29T13:18:50.106Z,50.40
2018-03-29T13:21:19.912Z,47.60
2018-03-29T13:23:53.639Z,48.90
2018-03-29T13:26:23.514Z,50.60
2018-03-29T13:29:06.204Z,49.20
2018-03-29T13:36:36.495Z,49.70
2018-03-29T13:39:07.542Z,46.90
2018-03-29T13:41:37.030Z,45.70
2018-03-29T13:44:13.744Z,41.80
2018-03-29T13:46:44.002Z,38.80
2018-03-29T13:49:14.202Z,38.80
2018-03-29T13:54:15.462Z,39.50
2018-03-29T13:56:46.510Z,40.40
2018-03-29T13:59:18.578Z,42.70
2018-03-29T14:01:48.400Z,41.80
2018-03-29T14:04:19.898Z,43.80
2018-03-29T14:06:49.340Z,44.70
2018-03-29T14:09:22.404Z,45.30
2018-03-29T14:11:52.308Z,44.30
2018-03-29T14:14:25.713Z,45.60
2018-03-29T14:16:55.526Z,44.30
2018-03-29T14:19:27.601Z,41.10
2018-03-29T14:24:28.787Z,40.90
2018-03-29T14:29:31.677Z,41.60
2018-03-29T14:32:01.092Z,39.90
2018-03-29T14:34:33.681Z,40.10
2018-03-29T14:39:37.187Z,40.80
2018-03-29T14:44:39.577Z,42.90
2018-03-29T14:47:09.583Z,42.60
2018-03-29T14:49:43.672Z,41.30
2018-03-29T14:52:14.743Z,38.60
2018-03-29T14:54:45.479Z,39.50
2018-03-29T14:57:16.284Z,40.20
2018-03-29T14:59:48.973Z,39.20
2018-03-29T15:02:19.292Z,39.30
2018-03-29T15:04:49.899Z,40.30
2018-03-29T15:07:20.424Z,39.30
2018-03-29T15:09:54.264Z,39.40
2018-03-29T15:13:53.988Z,39.60
2018-03-29T15:16:24.680Z,40.40
2018-03-29T15:19:07.938Z,39.60
2018-03-29T15:21:37.817Z,39.10
2018-03-29T15:24:07.314Z,39.70
2018-03-29T15:26:36.889Z,38.70
2018-03-29T15:29:07.175Z,39.00
2018-03-29T15:31:40.346Z,37.30
2018-03-29T15:34:10.005Z,36.80
2018-03-29T15:36:40.961Z,36.80
2018-03-29T15:39:12.208Z,38.60
2018-03-29T15:41:41.899Z,37.80
2018-03-29T15:46:42.066Z,36.80
2018-03-29T15:51:45.248Z,38.40
2018-03-29T15:54:18.657Z,39.30
2018-03-29T15:56:49.023Z,37.80
2018-03-29T15:59:22.084Z,38.50
2018-03-29T16:01:51.506Z,38.40
2018-03-29T16:04:22.542Z,38.70
2018-03-29T16:06:52.463Z,39.50
2018-03-29T16:09:34.734Z,39.70
2018-03-29T16:12:04.276Z,40.10
2018-03-29T16:14:33.968Z,38.10
2018-03-29T16:17:04.616Z,37.40
2018-03-29T16:19:35.026Z,38.10
2018-03-29T16:22:04.500Z,38.00
2018-03-29T16:24:34.747Z,37.70
2018-03-29T16:27:04.260Z,38.50
2018-03-29T16:29:46.093Z,37.60
2018-03-29T16:32:16.916Z,37.60
2018-03-29T16:34:47.106Z,37.10
2018-03-29T16:37:16.583Z,37.50
2018-03-29T16:39:46.323Z,37.60
2018-03-29T16:42:15.721Z,38.00
2018-03-29T16:44:49.949Z,38.50
2018-03-29T16:47:19.891Z,37.90
2018-03-29T16:52:19.807Z,38.20
2018-03-29T16:54:53.397Z,38.70
2018-03-29T16:57:23.922Z,38.70
2018-03-29T17:00:06.205Z,38.90
2018-03-29T17:02:35.822Z,38.00
2018-03-29T17:05:05.591Z,37.90
2018-03-29T17:10:06.804Z,38.60
2018-03-29T17:12:36.062Z,38.30
2018-03-29T17:17:37.113Z,39.20
2018-03-29T17:20:12.166Z,39.90
2018-03-29T17:22:41.681Z,40.10
2018-03-29T17:25:15.285Z,40.70
2018-03-29T17:27:45.426Z,40.80
2018-03-29T17:30:17.209Z,41.70
2018-03-29T17:32:47.489Z,42.30
2018-03-29T17:35:20.264Z,43.10
2018-03-29T17:37:50.308Z,43.90
2018-03-29T17:40:21.474Z,43.30
2018-03-29T17:42:50.749Z,43.30
2018-03-29T17:58:29.276Z,44.20
2018-03-29T18:00:59.362Z,45.40
2018-03-29T18:03:31.991Z,47.70
2018-03-29T18:06:01.846Z,50.10
2018-03-29T18:08:35.416Z,52.90
2018-03-29T18:11:05.195Z,55.10
2018-03-29T18:13:36.489Z,56.10
2018-03-29T18:18:39.205Z,57.30
2018-03-29T18:21:08.700Z,57.50
2018-03-29T18:23:41.714Z,57.70
2018-03-29T18:26:11.027Z,58.00
2018-03-29T18:28:44.171Z,58.20
2018-03-29T18:31:14.342Z,58.70
2018-03-29T18:33:56.213Z,59.20
2018-03-29T18:36:25.929Z,59.60
2018-03-29T18:52:08.696Z,57.80
2018-03-29T18:54:39.063Z,58.00
2018-03-29T18:57:09.057Z,57.50
2018-03-29T18:59:39.083Z,57.60
2018-03-29T19:02:09.339Z,58.20
2018-03-29T19:04:41.035Z,58.40
2018-03-29T19:09:41.458Z,58.60
2018-03-29T19:12:11.147Z,59.00
2018-03-29T19:14:41.240Z,59.90
2018-03-29T19:17:14.472Z,59.70
2018-03-29T19:19:45.085Z,60.80
2018-03-29T19:22:16.323Z,60.30
2018-03-29T19:24:47.225Z,61.10
2018-03-29T19:27:18.438Z,60.70
2018-03-29T19:29:49.577Z,61.20
2018-03-29T19:32:20.676Z,61.60
2018-03-29T19:34:50.050Z,62.20
2018-03-29T19:37:25.375Z,62.50
2018-03-29T19:39:55.103Z,62.90
2018-03-29T19:42:25.267Z,63.40
2018-03-29T19:44:56.100Z,64.10
2018-03-29T19:47:28.937Z,64.80
2018-03-29T19:49:59.500Z,65.80
2018-03-29T19:52:29.944Z,66.40
2018-03-29T19:54:59.459Z,66.20
2018-03-29T19:57:33.352Z,67.10
2018-03-29T20:00:04.064Z,67.00
2018-03-29T20:02:35.469Z,67.10
2018-03-29T20:05:06.305Z,67.60
2018-03-29T20:07:37.378Z,67.80
2018-03-29T20:10:06.878Z,68.10
2018-03-29T20:12:49.065Z,68.80
2018-03-29T20:15:19.223Z,69.00
2018-03-29T20:17:49.569Z,69.10
2018-03-29T20:20:20.086Z,69.30
2018-03-29T20:22:49.607Z,68.90
2018-03-29T20:25:20.270Z,68.60
2018-03-29T20:27:49.943Z,68.30
2018-03-29T20:30:20.382Z,67.70
2018-03-29T20:32:51.198Z,66.20
2018-03-29T20:35:20.572Z,65.20
2018-03-29T20:37:53.821Z,63.60
2018-03-29T20:40:23.644Z,62.90
2018-03-29T20:43:06.109Z,62.40
2018-03-29T20:45:36.287Z,61.90
2018-03-29T20:48:05.902Z,61.80
2018-03-29T20:50:36.604Z,61.50
2018-03-29T20:53:07.908Z,61.30
2018-03-29T20:55:38.924Z,61.60
2018-03-29T20:58:08.717Z,60.80
2018-03-29T21:00:38.980Z,61.10
2018-03-29T21:03:09.919Z,61.40
2018-03-29T21:05:42.153Z,62.20
2018-03-29T21:08:12.909Z,61.90
2018-03-29T21:10:42.502Z,62.00
2018-03-29T21:13:15.924Z,61.80
2018-03-29T21:15:45.757Z,61.90
2018-03-29T21:18:17.305Z,62.50
2018-03-29T21:23:19.514Z,61.90
2018-03-29T21:25:48.958Z,62.30
2018-03-29T21:28:44.356Z,62.30
2018-03-29T21:31:19.282Z,63.00
2018-03-29T21:33:49.002Z,62.60
2018-03-29T21:36:22.946Z,62.50
2018-03-29T21:38:52.925Z,61.90
2018-03-29T21:41:27.406Z,61.20
2018-03-29T21:43:57.625Z,61.90
2018-03-29T21:46:29.191Z,61.10
2018-03-29T21:48:59.454Z,61.50
2018-03-29T21:51:32.590Z,60.70
2018-03-29T21:54:02.088Z,60.30
2018-03-29T21:56:36.123Z,60.40
2018-03-29T21:59:05.768Z,60.30
2018-03-29T22:01:37.191Z,59.80
2018-03-29T22:04:07.234Z,60.10
2018-03-29T22:06:40.351Z,60.20
2018-03-29T22:09:10.389Z,60.40
2018-03-29T22:11:43.826Z,61.30
2018-03-29T22:14:13.618Z,61.00
2018-03-29T22:16:44.812Z,61.20
2018-03-29T22:19:14.692Z,61.70
2018-03-29T22:21:47.949Z,62.10
2018-03-29T22:24:20.522Z,62.70
2018-03-29T22:26:50.968Z,62.90
2018-03-29T22:29:20.996Z,63.10
2018-03-29T22:31:53.860Z,63.60
2018-03-29T22:34:23.743Z,63.80
2018-03-29T22:36:56.520Z,64.00
2018-03-29T22:39:27.852Z,64.30
2018-03-29T22:41:58.445Z,64.40
2018-03-29T22:44:28.946Z,65.00
2018-03-29T22:47:00.858Z,65.10
2018-03-29T22:49:30.182Z,64.50
2018-03-29T22:52:05.668Z,64.40
2018-03-29T22:54:36.606Z,64.20
2018-03-29T22:57:07.148Z,64.20
2018-03-29T22:59:36.538Z,63.90
2018-03-29T23:02:18.999Z,64.00
2018-03-29T23:04:48.828Z,64.20
2018-03-29T23:09:49.833Z,65.30
2018-03-29T23:12:19.356Z,64.60
2018-03-29T23:14:49.099Z,64.40
2018-03-29T23:17:18.916Z,64.20
2018-03-29T23:19:48.752Z,64.00
2018-03-29T23:22:20.528Z,64.00
2018-03-29T23:24:49.972Z,64.00
2018-03-29T23:27:22.643Z,64.80
2018-03-29T23:32:24.701Z,63.80
2018-03-29T23:34:54.456Z,64.00
2018-03-29T23:50:43.975Z,67.00
2018-03-29T23:53:14.082Z,67.50
2018-03-29T23:55:44.691Z,68.40
2018-03-29T23:58:18.705Z,69.20
